createdAt,value
2023-03-23T15:59:35.024Z,18.80
2023-03-23T16:02:03.099Z,18.70
2023-03-23T16:04:33.043Z,18.70
2023-03-23T16:07:02.554Z,18.70
2023-03-23T16:09:30.804Z,18.60
2023-03-23T16:11:58.797Z,18.60
2023-03-23T16:14:26.822Z,18.50
2023-03-23T16:16:54.887Z,18.40
2023-03-23T16:19:24.525Z,18.40
2023-03-23T16:21:52.808Z,18.30
2023-03-23T16:24:22.192Z,18.20
2023-03-23T16:26:50.279Z,18.20
2023-03-23T16:29:39.993Z,18.20
2023-03-23T16:32:06.750Z,18.20
2023-03-23T16:34:35.697Z,18.10
2023-03-23T16:37:03.837Z,18.20
2023-03-23T16:39:33.162Z,18.20
2023-03-23T16:42:01.194Z,18.20
2023-03-23T16:44:29.214Z,18.30
2023-03-23T16:46:57.196Z,18.30
2023-03-23T16:49:25.234Z,18.20
2023-03-23T16:51:53.261Z,18.10
2023-03-23T16:54:21.454Z,17.90
2023-03-23T16:56:50.859Z,17.80
2023-03-23T16:59:18.861Z,17.60
2023-03-23T17:01:47.033Z,17.50
2023-03-23T17:04:15.742Z,17.40
2023-03-23T17:06:44.106Z,17.30
2023-03-23T17:09:12.175Z,17.20
2023-03-23T17:11:40.447Z,17.10
2023-03-23T17:14:09.880Z,17.00
2023-03-23T17:16:38.534Z,16.90
2023-03-23T17:19:07.192Z,16.80
2023-03-23T17:21:36.134Z,16.70
2023-03-23T17:24:04.319Z,16.60
2023-03-23T17:26:32.427Z,16.50
2023-03-23T17:29:00.546Z,16.50
2023-03-23T17:31:29.953Z,16.50
2023-03-23T17:33:58.382Z,16.40
2023-03-23T17:36:26.657Z,16.40
2023-03-23T17:38:54.680Z,16.40
2023-03-23T17:41:22.648Z,16.40
2023-03-23T17:43:50.852Z,16.40
2023-03-23T17:46:18.893Z,16.30
2023-03-23T17:48:48.316Z,16.30
2023-03-23T17:51:16.405Z,16.20
2023-03-23T17:53:45.249Z,16.10
2023-03-23T17:56:13.579Z,16.10
2023-03-23T17:58:41.866Z,16.00
2023-03-23T18:01:09.986Z,15.90
2023-03-23T18:03:38.343Z,15.90
2023-03-23T18:06:09.318Z,15.90
2023-03-23T18:08:38.378Z,15.90
2023-03-23T18:11:07.709Z,15.90
2023-03-23T18:13:37.236Z,15.90
2023-03-23T18:16:06.192Z,15.90
2023-03-23T18:18:34.434Z,15.80
2023-03-23T18:21:04.617Z,15.80
2023-03-23T18:23:39.098Z,15.80
2023-03-23T18:26:13.126Z,15.80
2023-03-23T18:28:41.307Z,15.90
2023-03-23T18:31:10.848Z,15.90
2023-03-23T18:33:39.218Z,15.90
2023-03-23T18:36:08.050Z,15.90
2023-03-23T18:38:38.213Z,15.90
2023-03-23T18:41:08.269Z,15.90
2023-03-23T18:43:36.548Z,15.90
2023-03-23T18:46:05.297Z,15.90
2023-03-23T18:48:33.700Z,15.90
2023-03-23T18:51:02.410Z,15.90
2023-03-23T18:53:30.545Z,15.90
2023-03-23T18:56:07.814Z,15.90
2023-03-23T18:58:35.932Z,15.90
2023-03-23T19:01:07.026Z,15.90
2023-03-23T19:03:35.685Z,15.90
2023-03-23T19:06:04.548Z,15.90
2023-03-23T19:08:33.048Z,15.80
2023-03-23T19:11:03.530Z,15.80
2023-03-23T19:13:36.882Z,15.80
2023-03-23T19:16:06.975Z,15.80
2023-03-23T19:18:35.154Z,15.80
2023-03-23T19:21:12.666Z,15.70
2023-03-23T19:23:43.464Z,15.70
2023-03-23T19:26:19.517Z,15.70
2023-03-23T19:31:21.661Z,15.70
2023-03-23T19:33:49.758Z,15.70
2023-03-23T19:36:18.486Z,15.70
2023-03-23T19:38:46.564Z,15.70
2023-03-23T19:41:15.621Z,15.70
2023-03-23T19:43:44.155Z,15.70
2023-03-23T19:46:14.528Z,15.60
2023-03-23T19:48:43.017Z,15.60
2023-03-23T19:51:13.009Z,15.60
2023-03-23T19:53:41.738Z,15.60
2023-03-23T19:56:14.065Z,15.60
2023-03-23T19:58:42.128Z,15.60
2023-03-23T20:01:10.464Z,15.60
2023-03-23T20:03:40.163Z,15.60
2023-03-23T20:06:14.884Z,15.50
2023-03-23T20:08:45.572Z,15.50
2023-03-23T20:11:17.125Z,15.50
2023-03-23T20:13:46.403Z,15.50
2023-03-23T20:16:14.836Z,15.50
2023-03-23T20:18:45.742Z,15.50
2023-03-23T20:23:45.180Z,15.50
2023-03-23T20:26:15.489Z,15.50
2023-03-23T20:28:45.591Z,15.50
2023-03-23T20:31:19.572Z,15.50
2023-03-23T20:34:00.474Z,15.50
2023-03-23T20:36:34.446Z,15.50
2023-03-23T20:39:03.744Z,15.50
2023-03-23T20:41:32.863Z,15.50
2023-03-23T20:44:00.826Z,15.50
2023-03-23T20:46:29.350Z,15.40
2023-03-23T20:48:58.681Z,15.40
2023-03-23T20:51:26.947Z,15.40
2023-03-23T20:53:55.013Z,15.40
2023-03-23T20:56:24.388Z,15.40
2023-03-23T20:58:53.429Z,15.40
2023-03-23T21:01:22.025Z,15.40
2023-03-23T21:03:52.099Z,15.30
2023-03-23T21:06:22.465Z,15.40
2023-03-23T21:08:52.343Z,15.40
2023-03-23T21:11:22.428Z,15.40
2023-03-23T21:13:51.676Z,15.40
2023-03-23T21:16:20.350Z,15.30
2023-03-23T21:18:48.447Z,15.30
2023-03-23T21:21:18.465Z,15.30
2023-03-23T21:23:52.659Z,15.30
2023-03-23T21:26:23.054Z,15.20
2023-03-23T21:28:53.996Z,15.20
2023-03-23T21:31:25.461Z,15.20
2023-03-23T21:33:53.503Z,15.20
2023-03-23T21:36:21.490Z,15.20
2023-03-23T21:38:51.002Z,15.20
2023-03-23T21:41:19.106Z,15.20
2023-03-23T21:43:47.909Z,15.10
2023-03-23T21:46:18.995Z,15.10
2023-03-23T21:48:50.786Z,15.00
2023-03-23T21:51:21.472Z,14.90
2023-03-23T21:53:54.521Z,14.90
2023-03-23T21:56:24.132Z,14.90
2023-03-23T21:58:52.667Z,14.80
2023-03-23T22:01:21.357Z,14.70
2023-03-23T22:03:49.891Z,14.60
2023-03-23T22:06:20.944Z,14.60
2023-03-23T22:08:51.042Z,14.50
2023-03-23T22:11:21.112Z,14.50
2023-03-23T22:13:52.375Z,14.40
2023-03-23T22:16:21.962Z,14.30
2023-03-23T22:18:52.326Z,14.20
2023-03-23T22:21:23.018Z,14.20
2023-03-23T22:23:52.897Z,14.10
2023-03-23T22:26:21.605Z,14.10
2023-03-23T22:28:51.015Z,14.00
2023-03-23T22:31:22.450Z,14.00
2023-03-23T22:33:54.169Z,14.00
2023-03-23T22:36:23.494Z,13.90
2023-03-23T22:38:53.526Z,13.90
2023-03-23T22:41:23.681Z,13.80
2023-03-23T22:43:52.155Z,13.80
2023-03-23T22:46:21.917Z,13.80
2023-03-23T22:48:50.173Z,13.70
2023-03-23T22:51:20.157Z,13.70
2023-03-23T22:53:49.705Z,13.70
2023-03-23T22:56:20.117Z,13.60
2023-03-23T22:58:48.482Z,13.60
2023-03-23T23:01:19.060Z,13.60
2023-03-23T23:03:47.909Z,13.60
2023-03-23T23:06:18.070Z,13.60
2023-03-23T23:08:47.268Z,13.60
2023-03-23T23:11:17.303Z,13.50
2023-03-23T23:13:47.533Z,13.50
2023-03-23T23:16:17.939Z,13.50
2023-03-23T23:18:47.580Z,13.50
2023-03-23T23:21:18.126Z,13.50
2023-03-23T23:23:47.748Z,13.40
2023-03-23T23:26:17.095Z,13.40
2023-03-23T23:28:48.587Z,13.40
2023-03-23T23:31:26.221Z,13.50
2023-03-23T23:33:55.976Z,13.50
2023-03-23T23:36:27.616Z,13.50
2023-03-23T23:38:55.777Z,13.50
2023-03-23T23:41:24.370Z,13.40
2023-03-23T23:43:53.972Z,13.50
2023-03-23T23:46:22.349Z,13.40
2023-03-23T23:48:50.536Z,13.40
2023-03-23T23:51:18.764Z,13.40
2023-03-23T23:53:53.547Z,13.40
2023-03-23T23:56:22.466Z,13.40
2023-03-23T23:58:50.721Z,13.40
